createdAt,value
2023-04-18T12:34:35.337Z,61.1502
2023-04-18T12:35:36.319Z,60.6863
2023-04-18T12:36:37.353Z,58.9814
2023-04-18T12:37:38.362Z,59.4285
2023-04-18T12:38:39.370Z,58.9164
2023-04-18T12:39:40.314Z,60.3069
2023-04-18T12:40:41.289Z,61.4439
2023-04-18T12:41:42.255Z,61.2702
2023-04-18T12:42:43.221Z,60.2302
2023-04-18T12:43:44.212Z,59.6822
2023-04-18T12:44:46.956Z,60.7075
2023-04-18T12:45:46.326Z,59.5779
2023-04-18T12:46:47.351Z,60.2483
2023-04-18T12:47:48.393Z,60.5951
2023-04-18T12:48:49.378Z,59.5303
2023-04-18T12:49:50.438Z,58.7792
2023-04-18T12:50:51.374Z,56.8764
2023-04-18T12:51:52.379Z,54.2950
2023-04-18T12:52:53.429Z,56.2846
2023-04-18T12:53:54.405Z,57.6961
2023-04-18T12:54:55.362Z,59.8917
2023-04-18T12:55:56.351Z,59.2042
2023-04-18T12:56:57.327Z,58.8867
2023-04-18T12:57:58.369Z,57.7494
2023-04-18T12:58:59.300Z,57.8452
2023-04-18T13:00:00.310Z,57.2144
2023-04-18T13:01:01.309Z,55.6671
2023-04-18T13:02:02.317Z,57.0544
2023-04-18T13:03:03.499Z,56.6143
2023-04-18T13:04:12.447Z,57.4444
2023-04-18T13:05:06.341Z,59.0019
2023-04-18T13:06:08.410Z,59.0296
2023-04-18T13:07:09.337Z,58.5703
2023-04-18T13:08:17.054Z,57.5217
2023-04-18T13:09:12.363Z,56.7195
2023-04-18T13:10:13.453Z,55.1393
2023-04-18T13:11:14.471Z,53.4695
2023-04-18T13:12:15.410Z,54.6595
2023-04-18T13:13:16.480Z,57.3611
2023-04-18T13:14:17.465Z,59.3844
2023-04-18T13:15:18.428Z,59.8306
2023-04-18T13:16:19.491Z,58.8553
2023-04-18T13:17:20.490Z,56.2425
2023-04-18T13:18:21.473Z,55.9529
2023-04-18T13:19:22.415Z,54.7876
2023-04-18T13:20:23.493Z,52.9817
2023-04-18T13:21:24.421Z,56.0402
2023-04-18T13:22:25.412Z,56.4883
2023-04-18T13:23:26.419Z,55.2852
2023-04-18T13:24:27.383Z,54.7598
2023-04-18T13:25:28.390Z,53.6264
2023-04-18T13:26:29.336Z,55.3173
2023-04-18T13:27:30.317Z,56.8636
2023-04-18T13:28:31.009Z,57.0488
2023-04-18T13:29:31.197Z,57.0670
2023-04-18T13:30:32.038Z,55.8802
2023-04-18T13:31:32.827Z,54.4307
2023-04-18T13:32:33.676Z,54.1956
2023-04-18T13:33:34.396Z,55.6397
2023-04-18T13:34:35.129Z,56.1783
2023-04-18T13:35:35.889Z,53.7402
2023-04-18T13:36:36.635Z,51.4321
2023-04-18T13:37:37.630Z,53.1765
2023-04-18T13:38:38.400Z,53.1423
2023-04-18T13:39:39.644Z,52.3172
2023-04-18T13:40:40.361Z,51.3278
2023-04-18T13:41:41.131Z,51.4017
2023-04-18T13:42:41.836Z,52.4232
2023-04-18T13:43:42.829Z,54.8011
2023-04-18T13:44:43.583Z,51.5635
2023-04-18T13:45:44.439Z,51.3938
2023-04-18T13:46:45.417Z,52.8493
2023-04-18T13:47:46.131Z,49.6919
2023-04-18T13:48:46.887Z,48.9108
2023-04-18T13:49:47.601Z,49.1822
2023-04-18T13:50:48.344Z,51.1987
2023-04-18T13:51:49.115Z,50.0250
2023-04-18T13:52:49.808Z,50.9039
2023-04-18T13:53:50.579Z,51.0780
2023-04-18T13:54:51.343Z,51.6329
2023-04-18T13:55:52.061Z,52.3430
2023-04-18T13:56:52.803Z,52.1496
2023-04-18T13:57:53.561Z,52.9738
2023-04-18T13:58:54.290Z,52.3424
2023-04-18T13:59:55.010Z,51.6300
2023-04-18T14:00:56.318Z,51.6921
2023-04-18T14:01:57.167Z,51.5592
2023-04-18T14:02:58.059Z,49.0659
2023-04-18T14:03:59.037Z,47.7441
2023-04-18T14:05:00.037Z,47.1944
2023-04-18T14:06:00.859Z,47.4286
2023-04-18T14:07:01.659Z,47.9096
2023-04-18T14:08:02.397Z,48.1006
2023-04-18T14:09:03.369Z,48.3380
2023-04-18T14:10:04.106Z,47.7063
2023-04-18T14:11:04.873Z,47.0947
2023-04-18T14:12:05.593Z,45.6613
2023-04-18T14:13:06.334Z,47.1573
2023-04-18T14:14:07.073Z,47.6902
2023-04-18T14:15:07.890Z,47.8441
2023-04-18T14:16:08.686Z,47.8713
2023-04-18T14:17:09.426Z,48.3004
2023-04-18T14:18:10.205Z,48.2763
2023-04-18T14:19:11.036Z,47.3902
2023-04-18T14:20:11.818Z,46.6866
2023-04-18T14:21:12.592Z,47.5294
2023-04-18T14:22:14.375Z,48.7846
2023-04-18T14:23:15.100Z,48.1444
2023-04-18T14:24:15.870Z,48.6081
2023-04-18T14:25:16.615Z,47.4487
2023-04-18T14:26:17.358Z,46.3902
2023-04-18T14:27:18.105Z,45.0274
2023-04-18T14:28:18.844Z,45.5826
2023-04-18T14:29:19.582Z,48.1927
2023-04-18T14:30:20.318Z,47.8550
2023-04-18T14:31:21.125Z,48.9518
2023-04-18T14:32:21.902Z,51.7909
2023-04-18T14:33:22.633Z,53.1344
2023-04-18T14:34:23.390Z,52.5860
2023-04-18T14:35:24.118Z,50.8957
2023-04-18T14:36:24.854Z,50.3783
2023-04-18T14:37:25.613Z,50.3452
2023-04-18T14:38:26.346Z,50.4682
2023-04-18T14:39:27.119Z,50.0353
2023-04-18T14:40:27.888Z,51.0568
2023-04-18T14:41:28.631Z,49.5009
2023-04-18T14:42:29.410Z,47.3860
2023-04-18T14:43:30.156Z,47.5675
2023-04-18T14:44:30.949Z,49.5493
2023-04-18T14:45:31.693Z,50.4791
2023-04-18T14:46:32.489Z,48.9111
2023-04-18T14:47:33.274Z,47.7147
2023-04-18T14:48:34.010Z,47.2582
2023-04-18T14:49:34.758Z,47.3457
2023-04-18T14:50:35.501Z,47.6302
2023-04-18T14:51:36.306Z,46.3912
2023-04-18T14:52:37.058Z,48.0964
2023-04-18T14:53:37.805Z,50.3565
2023-04-18T14:54:38.581Z,51.7038
2023-04-18T14:55:39.317Z,52.3543
2023-04-18T14:56:40.178Z,49.5253
2023-04-18T14:57:40.939Z,48.6185
2023-04-18T14:58:41.696Z,50.4154
2023-04-18T14:59:42.480Z,49.4585
2023-04-18T15:00:43.218Z,48.6855
2023-04-18T15:01:43.974Z,47.0182
2023-04-18T15:02:44.987Z,47.5598
2023-04-18T15:03:46.007Z,45.5195
2023-04-18T15:04:46.976Z,46.1772
2023-04-18T15:05:47.756Z,48.1252
2023-04-18T15:06:48.543Z,48.3763
2023-04-18T15:07:49.275Z,47.8053
2023-04-18T15:08:50.018Z,46.1006
2023-04-18T15:09:50.806Z,44.6953
2023-04-18T15:10:51.570Z,44.6022
2023-04-18T15:11:59.846Z,45.1966
2023-04-18T15:13:00.586Z,43.4827
2023-04-18T15:14:01.807Z,43.5217
2023-04-18T15:15:02.559Z,44.3536
2023-04-18T15:16:03.383Z,45.3114
2023-04-18T15:17:04.162Z,44.8721
2023-04-18T15:18:04.992Z,44.8386
2023-04-18T15:19:05.707Z,45.7082
2023-04-18T15:20:06.477Z,46.6817
2023-04-18T15:21:07.208Z,47.1191
2023-04-18T15:22:07.949Z,47.1691
2023-04-18T15:23:08.693Z,46.7083
2023-04-18T15:24:09.450Z,47.1205
2023-04-18T15:25:10.278Z,46.0175
2023-04-18T15:26:10.990Z,45.7499
2023-04-18T15:28:12.106Z,48.9424
2023-04-18T15:29:14.364Z,46.3702
2023-04-18T15:30:15.108Z,46.7248
2023-04-18T15:31:15.986Z,49.2271
2023-04-18T15:32:16.875Z,46.8456
2023-04-18T15:33:17.577Z,45.6936
2023-04-18T15:34:18.321Z,46.7919
2023-04-18T15:35:19.078Z,44.9732
2023-04-18T15:36:19.838Z,46.6163
2023-04-18T15:37:20.582Z,48.3415
2023-04-18T15:38:21.325Z,47.3966
2023-04-18T15:39:22.044Z,47.0434
2023-04-18T15:40:22.863Z,48.4594
2023-04-18T15:41:23.650Z,50.3194
2023-04-18T15:42:24.409Z,51.9431
2023-04-18T15:43:25.202Z,51.2165
2023-04-18T15:44:25.965Z,51.0455
2023-04-18T15:45:26.785Z,50.6815
2023-04-18T15:46:27.549Z,50.9579
2023-04-18T15:47:28.293Z,51.0683
2023-04-18T15:48:29.078Z,51.4237
2023-04-18T15:49:29.857Z,49.2665
2023-04-18T15:50:32.160Z,47.8979
2023-04-18T15:51:31.651Z,47.7606
2023-04-18T15:52:32.460Z,47.8436
2023-04-18T15:53:33.247Z,50.0495
2023-04-18T15:54:34.025Z,47.1461
2023-04-18T15:55:34.827Z,47.7528
2023-04-18T15:56:35.572Z,46.1625
2023-04-18T15:57:36.355Z,46.1057
2023-04-18T15:58:37.115Z,48.7529
2023-04-18T15:59:37.927Z,46.9353
2023-04-18T16:00:43.186Z,48.0944
2023-04-18T16:01:45.835Z,49.1779
2023-04-18T16:02:47.124Z,50.0113
2023-04-18T16:03:48.072Z,49.5133
2023-04-18T16:04:48.884Z,49.3167
2023-04-18T16:05:49.648Z,47.8372
2023-04-18T16:06:50.425Z,47.7341
2023-04-18T16:07:51.254Z,49.9384
2023-04-18T16:08:52.007Z,50.3368
2023-04-18T16:09:52.828Z,50.7651
2023-04-18T16:10:53.599Z,52.3317
2023-04-18T16:11:54.386Z,54.2292
2023-04-18T16:12:55.157Z,54.1513
2023-04-18T16:13:55.947Z,54.6391
2023-04-18T16:14:56.702Z,53.7846
2023-04-18T16:15:57.746Z,52.1801
2023-04-18T16:16:58.547Z,53.8407
2023-04-18T16:17:59.377Z,52.0805
2023-04-18T16:19:00.124Z,54.2495
2023-04-18T16:20:00.867Z,55.2080
2023-04-18T16:21:01.765Z,54.1391
2023-04-18T16:22:02.531Z,52.4520
2023-04-18T16:23:03.279Z,50.5640
2023-04-18T16:24:04.292Z,51.5230
2023-04-18T16:25:05.083Z,52.4821
2023-04-18T16:26:05.888Z,52.9565
2023-04-18T16:27:06.630Z,52.2213
2023-04-18T16:28:07.397Z,53.0783
2023-04-18T16:29:08.189Z,54.2666
2023-04-18T16:30:08.986Z,54.3998
2023-04-18T16:31:09.994Z,54.3962
2023-04-18T16:32:10.761Z,54.3491
2023-04-18T16:33:11.627Z,54.1902
2023-04-18T16:34:12.511Z,53.4625
2023-04-18T16:35:13.378Z,52.7688
2023-04-18T16:36:14.473Z,53.0653
2023-04-18T16:37:15.225Z,52.9641
2023-04-18T16:38:16.023Z,51.9537
2023-04-18T16:39:16.846Z,53.0071
2023-04-18T16:40:17.624Z,53.9978
2023-04-18T16:41:18.414Z,55.2724
2023-04-18T16:42:19.196Z,54.3049
2023-04-18T16:43:19.948Z,54.6835
2023-04-18T16:44:20.720Z,53.5770
2023-04-18T16:45:21.474Z,52.3629
2023-04-18T16:46:22.322Z,52.9817
2023-04-18T16:47:23.111Z,52.7465
2023-04-18T16:48:23.899Z,53.0209
2023-04-18T16:49:24.686Z,52.2176
2023-04-18T16:50:25.500Z,50.6284
2023-04-18T16:51:26.317Z,52.5482
2023-04-18T16:52:27.105Z,53.0089
2023-04-18T16:53:28.206Z,53.1982
2023-04-18T16:54:28.962Z,53.1635
2023-04-18T16:55:29.759Z,53.3151
2023-04-18T16:56:30.726Z,53.6731
2023-04-18T16:57:31.508Z,53.3424
2023-04-18T16:58:32.269Z,53.8979
2023-04-18T16:59:33.058Z,53.3825
2023-04-18T17:00:33.821Z,54.6824
2023-04-18T17:01:34.705Z,53.8740
2023-04-18T17:02:35.522Z,53.3921
2023-04-18T17:03:36.798Z,53.6033
2023-04-18T17:04:37.756Z,55.4631
2023-04-18T17:05:38.573Z,54.7841
2023-04-18T17:06:39.398Z,55.5356
2023-04-18T17:07:40.174Z,55.4702
2023-04-18T17:08:40.980Z,56.0134
2023-04-18T17:09:41.734Z,55.7789
2023-04-18T17:10:42.542Z,55.5078
2023-04-18T17:11:43.482Z,56.3920
2023-04-18T17:12:44.294Z,56.3849
2023-04-18T17:13:45.054Z,57.0576
2023-04-18T17:14:45.854Z,56.9511
2023-04-18T17:15:46.699Z,57.4939
2023-04-18T17:16:47.736Z,57.3283
2023-04-18T17:17:48.953Z,58.2925
2023-04-18T17:18:49.963Z,58.4197
2023-04-18T17:19:50.729Z,57.6032
2023-04-18T17:20:51.517Z,58.4499
2023-04-18T17:21:52.351Z,58.1597
2023-04-18T17:22:53.117Z,58.3727
2023-04-18T17:23:53.893Z,58.7235
2023-04-18T17:24:54.676Z,58.1887
2023-04-18T17:25:55.780Z,58.6326
2023-04-18T17:26:56.570Z,58.8152
2023-04-18T17:27:57.413Z,58.5874
2023-04-18T17:28:57.309Z,59.1111
2023-04-18T17:29:58.086Z,59.0385
2023-04-18T17:30:59.115Z,59.4465
2023-04-18T17:31:59.910Z,59.7753
2023-04-18T17:33:00.712Z,59.3554
2023-04-18T17:34:01.596Z,59.9279
2023-04-18T17:35:02.351Z,60.1018
2023-04-18T17:36:04.319Z,60.8336
2023-04-18T17:37:03.234Z,61.1711
2023-04-18T17:38:04.024Z,61.1424
2023-04-18T17:39:04.805Z,61.0938
2023-04-18T17:40:05.588Z,61.2472
2023-04-18T17:41:06.370Z,61.4692
2023-04-18T17:42:07.172Z,61.6763
2023-04-18T17:43:07.958Z,61.8480
2023-04-18T17:44:08.836Z,61.6720
2023-04-18T17:45:09.603Z,62.0907
2023-04-18T17:46:17.490Z,61.7694
2023-04-18T17:47:18.401Z,61.8727
2023-04-18T17:48:26.930Z,62.3265
2023-04-18T17:49:20.637Z,62.8942
2023-04-18T17:50:21.414Z,62.9757
2023-04-18T17:51:22.426Z,63.0931
2023-04-18T17:52:23.227Z,62.5001
2023-04-18T17:53:24.034Z,62.8095
2023-04-18T17:54:24.833Z,62.9337
2023-04-18T17:55:25.637Z,62.5930
2023-04-18T17:56:26.423Z,63.0762
2023-04-18T17:57:27.235Z,63.5779
2023-04-18T17:58:27.995Z,63.9182
2023-04-18T17:59:28.773Z,63.4141
2023-04-18T18:00:29.557Z,63.9099
2023-04-18T18:01:30.474Z,64.1104
2023-04-18T18:02:31.471Z,64.3188
2023-04-18T18:03:32.498Z,64.6133
2023-04-18T18:04:33.467Z,64.9367
2023-04-18T18:05:34.341Z,65.2624
2023-04-18T18:06:35.119Z,65.7255
2023-04-18T18:07:35.906Z,65.9309
2023-04-18T18:08:37.072Z,66.0095
2023-04-18T18:09:37.867Z,66.1288
2023-04-18T18:10:38.617Z,66.4371
2023-04-18T18:11:39.384Z,66.6670
2023-04-18T18:12:40.381Z,66.8906
2023-04-18T18:13:41.180Z,67.0078
2023-04-18T18:14:41.994Z,67.1318
2023-04-18T18:15:42.744Z,67.2150
2023-04-18T18:16:43.567Z,66.9829
2023-04-18T18:17:44.407Z,67.3221
2023-04-18T18:18:45.235Z,67.5289
2023-04-18T18:19:46.028Z,67.6850
2023-04-18T18:20:46.793Z,67.9312
2023-04-18T18:21:47.588Z,68.1362
2023-04-18T18:22:48.373Z,68.3798
2023-04-18T18:23:49.153Z,68.4648
2023-04-18T18:24:49.928Z,68.1574
2023-04-18T18:25:50.711Z,68.2460
2023-04-18T18:26:51.832Z,68.6230
2023-04-18T18:27:52.676Z,68.6955
2023-04-18T18:28:53.418Z,68.8888
2023-04-18T18:29:54.198Z,69.0882
2023-04-18T18:30:54.990Z,69.1540
2023-04-18T18:31:55.721Z,69.1623
2023-04-18T18:32:56.528Z,69.1948
2023-04-18T18:33:57.312Z,69.2034
2023-04-18T18:34:58.110Z,69.4384
2023-04-18T18:35:58.880Z,69.3991
2023-04-18T18:36:59.653Z,69.4874
2023-04-18T18:38:00.702Z,69.4340
2023-04-18T18:39:01.485Z,69.5224
2023-04-18T18:40:02.261Z,69.7244
2023-04-18T18:41:03.926Z,69.9346
2023-04-18T18:42:04.719Z,70.0672
2023-04-18T18:43:05.538Z,70.1623
2023-04-18T18:44:06.292Z,70.1187
2023-04-18T18:45:07.048Z,70.0012
2023-04-18T18:46:07.856Z,70.1106
2023-04-18T18:47:08.606Z,70.3353
2023-04-18T18:48:09.644Z,70.2196
2023-04-18T18:49:10.430Z,70.2481
2023-04-18T18:50:11.177Z,70.3387
2023-04-18T18:51:11.989Z,70.4029
2023-04-18T18:52:12.794Z,70.4873
2023-04-18T18:53:13.575Z,70.6613
2023-04-18T18:54:14.347Z,70.7343
2023-04-18T18:55:15.154Z,70.9147
2023-04-18T18:56:15.925Z,70.9412
2023-04-18T18:57:16.683Z,70.9612
2023-04-18T18:58:17.477Z,70.9905
2023-04-18T18:59:18.250Z,71.0158
2023-04-18T19:00:19.032Z,71.1578
2023-04-18T19:01:19.839Z,71.3775
2023-04-18T19:02:20.818Z,71.3992
2023-04-18T19:03:21.885Z,71.2979
2023-04-18T19:04:22.869Z,71.2314
2023-04-18T19:05:23.889Z,71.3920
2023-04-18T19:06:24.660Z,71.0158
2023-04-18T19:07:25.525Z,70.9259
2023-04-18T19:08:26.854Z,70.9505
2023-04-18T19:09:27.600Z,71.1335
2023-04-18T19:10:28.366Z,71.2561
2023-04-18T19:11:29.174Z,71.1732
2023-04-18T19:12:29.920Z,71.4111
2023-04-18T19:13:30.872Z,71.3933
2023-04-18T19:14:31.634Z,71.3013
2023-04-18T19:15:32.408Z,71.4970
2023-04-18T19:16:33.239Z,71.6217
2023-04-18T19:17:34.034Z,71.6274
2023-04-18T19:18:34.804Z,71.8701
2023-04-18T19:19:35.572Z,71.8197
2023-04-18T19:20:36.394Z,71.6617
2023-04-18T19:21:37.206Z,71.7482
2023-04-18T19:22:38.006Z,72.0093
2023-04-18T19:23:38.857Z,72.1011
2023-04-18T19:24:39.630Z,72.1756
2023-04-18T19:25:40.448Z,72.0852
2023-04-18T19:26:41.212Z,72.0856
2023-04-18T19:27:41.996Z,72.1508
2023-04-18T19:28:42.784Z,72.4023
2023-04-18T19:29:43.575Z,72.5409
2023-04-18T19:30:44.376Z,72.7634
2023-04-18T19:31:45.143Z,72.8050
2023-04-18T19:32:45.956Z,72.9239
2023-04-18T19:33:46.729Z,73.0041
2023-04-18T19:34:47.542Z,72.9030
2023-04-18T19:35:48.333Z,73.0631
2023-04-18T19:36:49.109Z,73.1553
2023-04-18T19:37:49.886Z,73.2630
2023-04-18T19:38:50.706Z,73.1860
2023-04-18T19:39:51.495Z,73.0757
2023-04-18T19:40:52.275Z,73.1864
2023-04-18T19:41:53.039Z,72.9955
2023-04-18T19:42:54.073Z,73.1973
2023-04-18T19:43:54.862Z,73.3160
2023-04-18T19:44:55.636Z,73.3357
2023-04-18T19:45:56.469Z,73.4092
2023-04-18T19:46:57.240Z,73.6612
2023-04-18T19:47:58.075Z,73.6987
2023-04-18T19:48:58.833Z,73.7116
2023-04-18T19:49:59.619Z,73.4440
2023-04-18T19:51:00.396Z,73.9440
2023-04-18T19:52:01.209Z,74.0084
2023-04-18T19:53:02.016Z,74.1204
2023-04-18T19:54:02.815Z,74.3464
2023-04-18T19:55:03.586Z,74.3374
2023-04-18T19:56:04.352Z,74.3657
2023-04-18T19:57:05.118Z,74.4690
2023-04-18T19:58:05.914Z,74.4077
2023-04-18T19:59:06.701Z,74.5333
2023-04-18T20:00:07.460Z,74.6197
2023-04-18T20:01:08.311Z,74.7872
2023-04-18T20:02:09.133Z,74.8714
2023-04-18T20:03:10.064Z,74.7989
2023-04-18T20:04:11.162Z,74.8621
2023-04-18T20:05:12.133Z,74.9303
2023-04-18T20:06:13.031Z,74.9776
2023-04-18T20:07:13.786Z,75.1018
2023-04-18T20:08:14.581Z,75.2170
2023-04-18T20:09:15.636Z,75.1982
2023-04-18T20:10:16.853Z,75.3164
2023-04-18T20:11:17.609Z,75.3839
2023-04-18T20:12:18.415Z,75.5163
2023-04-18T20:13:19.418Z,75.5622
2023-04-18T20:14:20.198Z,75.6962
2023-04-18T20:15:20.997Z,75.8364
2023-04-18T20:16:21.782Z,75.9393
2023-04-18T20:17:22.592Z,75.9729
2023-04-18T20:18:23.435Z,75.7490
2023-04-18T20:19:24.244Z,75.6148
2023-04-18T20:20:25.003Z,75.8164
2023-04-18T20:21:25.754Z,75.9934
2023-04-18T20:22:26.548Z,75.9520
2023-04-18T20:23:27.564Z,76.1047
2023-04-18T20:24:28.380Z,76.2770
2023-04-18T20:25:29.210Z,76.2284
2023-04-18T20:26:29.952Z,76.3296
2023-04-18T20:27:30.744Z,76.1548
2023-04-18T20:28:38.644Z,76.0178
2023-04-18T20:29:39.444Z,76.0785
2023-04-18T20:30:40.260Z,76.1648
2023-04-18T20:31:41.026Z,76.3172
2023-04-18T20:32:41.851Z,76.4462
2023-04-18T20:33:42.585Z,76.4467
2023-04-18T20:34:51.940Z,76.3288
2023-04-18T20:35:52.733Z,76.3798
2023-04-18T20:36:53.516Z,76.2887
2023-04-18T20:37:54.306Z,76.3561
2023-04-18T20:38:55.095Z,76.3592
2023-04-18T20:39:55.898Z,76.3609
2023-04-18T20:40:56.660Z,76.5164
2023-04-18T20:41:57.537Z,76.5863
2023-04-18T20:42:58.429Z,76.7156
2023-04-18T20:43:59.198Z,76.8578
2023-04-18T20:44:59.956Z,76.9229
2023-04-18T20:46:00.764Z,77.1152
2023-04-18T20:47:01.541Z,77.2066
2023-04-18T20:48:02.614Z,77.3125
2023-04-18T20:49:03.372Z,77.3062
2023-04-18T20:50:04.176Z,77.4298
2023-04-18T20:51:04.979Z,77.4367
2023-04-18T20:52:05.769Z,77.2482
2023-04-18T20:53:06.529Z,77.1820
2023-04-18T20:54:07.305Z,77.0932
2023-04-18T20:55:08.089Z,77.2864
2023-04-18T20:56:08.951Z,77.3700
2023-04-18T20:57:09.714Z,77.3535
2023-04-18T20:58:10.523Z,77.4952
2023-04-18T20:59:11.310Z,77.5162
2023-04-18T21:00:12.068Z,77.6831
2023-04-18T21:01:12.898Z,77.7163
2023-04-18T21:02:13.795Z,77.8148
2023-04-18T21:03:14.667Z,77.8315
2023-04-18T21:04:15.923Z,77.6601
2023-04-18T21:05:17.557Z,77.7949
2023-04-18T21:06:18.326Z,77.7313
2023-04-18T21:07:19.097Z,77.7794
2023-04-18T21:08:20.145Z,77.9156
2023-04-18T21:09:20.936Z,78.0066
2023-04-18T21:10:21.701Z,77.9721
2023-04-18T21:11:22.453Z,77.9047
2023-04-18T21:12:23.248Z,77.9458
2023-04-18T21:13:24.035Z,77.8223
2023-04-18T21:14:24.824Z,78.1224
2023-04-18T21:15:25.872Z,78.1916
2023-04-18T21:16:26.699Z,78.0731
2023-04-18T21:17:27.473Z,77.9636
2023-04-18T21:18:28.514Z,77.9625
2023-04-18T21:19:29.299Z,78.0330
2023-04-18T21:20:30.117Z,78.0222
2023-04-18T21:21:30.910Z,78.0042
2023-04-18T21:22:31.663Z,78.1765
2023-04-18T21:23:32.458Z,78.3663
2023-04-18T21:24:33.212Z,78.4719
2023-04-18T21:25:34.225Z,78.5749
2023-04-18T21:26:35.021Z,78.5612
2023-04-18T21:27:35.802Z,78.2089
2023-04-18T21:28:36.790Z,78.1870
2023-04-18T21:29:37.553Z,78.1709
2023-04-18T21:30:38.345Z,78.3455
2023-04-18T21:31:39.171Z,78.5507
2023-04-18T21:32:39.927Z,78.5284
2023-04-18T21:33:40.691Z,78.6333
2023-04-18T21:34:42.420Z,78.8370
2023-04-18T21:35:43.187Z,78.8690
2023-04-18T21:36:44.002Z,78.8951
2023-04-18T21:37:44.754Z,79.0664
2023-04-18T21:38:45.533Z,79.1721
2023-04-18T21:39:46.311Z,79.0714
2023-04-18T21:40:47.080Z,78.9411
2023-04-18T21:41:47.858Z,79.0897
2023-04-18T21:42:49.881Z,78.9613
2023-04-18T21:43:50.732Z,79.0784
2023-04-18T21:44:51.489Z,79.1968
2023-04-18T21:45:52.366Z,79.1656
2023-04-18T21:46:53.114Z,79.1731
2023-04-18T21:47:54.166Z,79.1160
2023-04-18T21:48:54.916Z,79.2407
2023-04-18T21:49:55.708Z,79.3267
2023-04-18T21:50:56.712Z,79.4500
2023-04-18T21:51:57.486Z,79.5787
2023-04-18T21:52:58.290Z,79.7336
2023-04-18T21:53:59.080Z,79.7511
2023-04-18T21:54:59.860Z,79.5172
2023-04-18T21:56:00.640Z,79.4772
2023-04-18T21:57:01.423Z,79.5490
2023-04-18T21:58:03.226Z,79.6554
2023-04-18T21:59:04.023Z,79.6123
2023-04-18T22:00:04.778Z,79.8049
2023-04-18T22:01:05.847Z,79.8514
2023-04-18T22:02:06.845Z,79.7542
2023-04-18T22:03:07.901Z,79.8473
2023-04-18T22:04:08.884Z,79.8272
2023-04-18T22:05:09.765Z,80.0696
2023-04-18T22:06:10.558Z,80.2026
2023-04-18T22:07:11.340Z,80.1415
2023-04-18T22:08:12.155Z,80.1501
2023-04-18T22:09:12.967Z,80.2037
2023-04-18T22:10:13.747Z,80.2497
2023-04-18T22:11:14.526Z,80.2245
2023-04-18T22:12:15.301Z,80.2435
2023-04-18T22:13:16.103Z,80.3153
2023-04-18T22:14:17.019Z,80.2799
2023-04-18T22:15:17.801Z,80.3729
2023-04-18T22:16:18.829Z,80.5525
2023-04-18T22:17:19.628Z,80.6351
2023-04-18T22:18:20.420Z,80.5955
2023-04-18T22:19:21.230Z,80.5306
2023-04-18T22:20:22.022Z,80.6623
2023-04-18T22:21:22.823Z,80.7586
2023-04-18T22:22:23.668Z,80.8630
2023-04-18T22:23:24.491Z,80.8295
2023-04-18T22:24:25.289Z,80.9713
2023-04-18T22:25:26.104Z,81.0369
2023-04-18T22:26:26.915Z,80.9697
2023-04-18T22:27:27.719Z,80.9506
2023-04-18T22:28:28.787Z,81.0188
2023-04-18T22:29:29.583Z,81.1702
2023-04-18T22:30:30.473Z,81.2581
2023-04-18T22:31:31.388Z,81.0947
2023-04-18T22:32:32.200Z,80.8647
2023-04-18T22:33:32.955Z,80.9261
2023-04-18T22:34:33.787Z,80.9626
2023-04-18T22:35:34.622Z,81.0960
2023-04-18T22:36:35.982Z,81.0916
2023-04-18T22:37:36.772Z,81.2083
2023-04-18T22:38:37.590Z,81.4122
2023-04-18T22:39:38.422Z,81.6052
2023-04-18T22:40:39.241Z,81.5941
2023-04-18T22:41:40.089Z,81.6277
2023-04-18T22:42:40.891Z,81.6428
2023-04-18T22:43:41.735Z,81.6306
2023-04-18T22:44:42.553Z,81.7740
2023-04-18T22:45:43.435Z,81.8694
2023-04-18T22:46:44.281Z,81.8012
2023-04-18T22:47:45.250Z,81.7028
2023-04-18T22:48:46.138Z,81.6233
2023-04-18T22:49:46.925Z,81.6992
2023-04-18T22:50:47.723Z,81.8107
2023-04-18T22:51:48.586Z,81.8790
2023-04-18T22:52:49.437Z,81.7797
2023-04-18T22:53:50.288Z,81.8251
2023-04-18T22:54:51.135Z,81.8930
2023-04-18T22:55:52.164Z,81.9374
2023-04-18T22:56:52.991Z,81.9565
2023-04-18T22:57:53.795Z,82.0277
2023-04-18T22:58:54.633Z,81.9363
2023-04-18T22:59:55.425Z,81.8524
2023-04-18T23:00:56.254Z,81.8243
2023-04-18T23:01:57.138Z,81.9128
2023-04-18T23:02:58.361Z,81.8857
2023-04-18T23:03:59.266Z,81.8605
2023-04-18T23:05:00.144Z,81.7280
2023-04-18T23:06:01.036Z,81.6661
2023-04-18T23:07:01.881Z,81.7611
2023-04-18T23:08:02.991Z,81.8279
2023-04-18T23:09:03.904Z,81.9401
2023-04-18T23:10:04.725Z,81.9821
2023-04-18T23:11:05.551Z,82.1105
2023-04-18T23:12:06.406Z,82.0267
2023-04-18T23:13:07.232Z,82.0001
2023-04-18T23:14:08.035Z,82.0162
2023-04-18T23:15:08.874Z,82.0570
2023-04-18T23:16:09.942Z,82.1157
2023-04-18T23:17:10.824Z,82.0793
2023-04-18T23:18:11.892Z,82.0351
2023-04-18T23:19:12.722Z,81.9709
2023-04-18T23:20:13.557Z,81.8992
2023-04-18T23:21:14.353Z,81.9236
2023-04-18T23:22:15.154Z,82.0094
2023-04-18T23:23:15.976Z,82.0995
2023-04-18T23:24:16.962Z,82.1725
2023-04-18T23:25:17.838Z,82.2308
2023-04-18T23:26:18.920Z,82.2376
2023-04-18T23:27:19.782Z,82.1993
2023-04-18T23:28:20.736Z,82.1996
2023-04-18T23:29:21.517Z,82.1687
2023-04-18T23:30:22.353Z,82.1756
2023-04-18T23:31:23.193Z,82.1731
2023-04-18T23:32:24.108Z,82.1085
2023-04-18T23:33:24.944Z,82.0736
2023-04-18T23:34:25.741Z,82.1183
2023-04-18T23:35:26.534Z,82.1366
2023-04-18T23:36:27.379Z,82.1031
2023-04-18T23:37:28.213Z,81.9242
2023-04-18T23:38:29.016Z,81.9107
2023-04-18T23:39:29.829Z,82.0068
2023-04-18T23:40:30.668Z,82.0963
2023-04-18T23:41:31.470Z,82.1797
2023-04-18T23:42:32.293Z,82.2667
2023-04-18T23:43:33.347Z,82.2091
2023-04-18T23:44:34.175Z,82.1860
2023-04-18T23:45:35.011Z,82.1569
2023-04-18T23:46:36.704Z,82.1995
2023-04-18T23:47:37.643Z,82.1726
2023-04-18T23:48:40.208Z,82.1554
2023-04-18T23:49:41.014Z,82.2284
2023-04-18T23:50:41.853Z,82.1992
2023-04-18T23:51:42.676Z,82.3059
2023-04-18T23:52:43.546Z,82.4414
2023-04-18T23:53:44.651Z,82.4124
2023-04-18T23:54:45.474Z,82.4349
2023-04-18T23:55:46.288Z,82.2606
2023-04-18T23:56:47.099Z,82.2678
2023-04-18T23:57:47.951Z,82.2979
2023-04-18T23:58:48.774Z,82.2679
2023-04-18T23:59:49.584Z,82.3241
